createdAt,value
2019-05-05T00:01:14.734Z,0.00
2019-05-05T00:03:46.878Z,0.00
2019-05-05T00:06:17.204Z,0.00
2019-05-05T00:08:47.732Z,0.00
2019-05-05T00:11:20.271Z,0.00
2019-05-05T00:13:55.215Z,0.00
2019-05-05T00:16:39.928Z,1.00
2019-05-05T00:19:10.220Z,0.00
2019-05-05T00:21:40.728Z,0.40
2019-05-05T00:24:11.276Z,1.00
2019-05-05T00:26:41.406Z,0.00
2019-05-05T00:29:11.719Z,0.00
2019-05-05T00:31:41.949Z,1.00
2019-05-05T00:34:12.452Z,0.60
2019-05-05T00:36:44.478Z,0.00
2019-05-05T00:39:15.061Z,1.20
2019-05-05T00:41:45.192Z,0.00
2019-05-05T00:44:15.484Z,1.40
2019-05-05T00:46:59.353Z,0.00
2019-05-05T00:49:45.623Z,0.00
2019-05-05T00:52:07.045Z,0.00
2019-05-05T00:54:37.372Z,0.20
2019-05-05T00:57:08.005Z,1.00
2019-05-05T00:59:38.260Z,0.60
2019-05-05T01:02:27.109Z,0.40
2019-05-05T01:04:58.987Z,0.00
2019-05-05T01:07:29.298Z,1.00
2019-05-05T01:09:59.498Z,0.00
2019-05-05T01:12:30.241Z,1.00
2019-05-05T01:15:00.464Z,0.40
2019-05-05T01:17:31.080Z,0.00
2019-05-05T01:20:06.140Z,0.00
2019-05-05T01:22:34.174Z,0.40
2019-05-05T01:25:05.724Z,1.00
2019-05-05T01:27:35.869Z,0.00
2019-05-05T01:30:09.025Z,0.00
2019-05-05T01:32:40.656Z,0.40
2019-05-05T01:35:11.229Z,0.20
2019-05-05T01:37:46.177Z,0.00
2019-05-05T01:40:24.880Z,0.00
2019-05-05T01:42:54.996Z,1.60
2019-05-05T01:45:25.208Z,0.00
2019-05-05T01:47:55.474Z,0.80
2019-05-05T01:50:25.689Z,0.00
2019-05-05T01:52:57.217Z,0.20
2019-05-05T01:55:28.060Z,0.00
2019-05-05T01:57:58.374Z,0.60
2019-05-05T02:00:28.740Z,1.00
2019-05-05T02:02:59.340Z,0.00
2019-05-05T02:05:29.560Z,1.00
2019-05-05T02:07:59.907Z,0.60
2019-05-05T02:10:30.242Z,0.00
2019-05-05T02:13:00.828Z,0.60
2019-05-05T02:15:31.048Z,0.00
2019-05-05T02:18:01.189Z,0.00
2019-05-05T02:20:44.897Z,0.00
2019-05-05T02:23:16.368Z,0.00
2019-05-05T02:25:47.093Z,0.00
2019-05-05T02:28:17.512Z,0.00
2019-05-05T02:30:54.992Z,1.00
2019-05-05T02:33:26.131Z,0.00
2019-05-05T02:35:57.311Z,0.60
2019-05-05T02:38:27.748Z,0.00
2019-05-05T02:40:58.964Z,0.40
2019-05-05T02:43:30.017Z,0.00
2019-05-05T02:46:25.103Z,0.00
2019-05-05T02:48:56.461Z,0.00
2019-05-05T02:51:28.385Z,0.60
2019-05-05T02:54:01.818Z,0.20
2019-05-05T02:56:35.812Z,0.00
2019-05-05T02:59:09.767Z,0.00
2019-05-05T03:01:44.452Z,0.80
2019-05-05T03:04:14.489Z,0.40
2019-05-05T03:06:47.370Z,1.00
2019-05-05T03:09:18.808Z,0.00
2019-05-05T03:11:51.180Z,0.00
2019-05-05T03:14:23.675Z,0.40
2019-05-05T03:16:55.332Z,0.20
2019-05-05T03:19:25.966Z,0.00
2019-05-05T03:21:56.985Z,1.00
2019-05-05T03:24:27.726Z,0.00
2019-05-05T03:26:58.658Z,0.00
2019-05-05T03:29:29.121Z,0.60
2019-05-05T03:31:59.746Z,0.80
2019-05-05T03:34:29.935Z,0.80
2019-05-05T03:37:00.663Z,1.00
2019-05-05T03:39:34.017Z,4.00
2019-05-05T03:42:24.519Z,4.00
2019-05-05T03:45:05.671Z,2.80
2019-05-05T03:47:36.885Z,2.00
2019-05-05T03:50:08.512Z,1.60
2019-05-05T03:52:38.991Z,2.40
2019-05-05T03:55:09.800Z,3.00
2019-05-05T03:57:40.944Z,2.00
2019-05-05T04:00:11.492Z,4.00
2019-05-05T04:02:44.496Z,4.00
2019-05-05T04:05:29.725Z,1.00
2019-05-05T04:10:54.627Z,3.20
2019-05-05T04:13:25.601Z,4.00
2019-05-05T04:16:00.981Z,3.60
2019-05-05T04:18:34.089Z,3.60
2019-05-05T04:21:04.205Z,0.00
2019-05-05T04:23:34.825Z,4.00
2019-05-05T04:26:05.315Z,2.80
2019-05-05T04:28:36.055Z,2.00
2019-05-05T04:31:06.285Z,2.40
2019-05-05T04:33:36.517Z,1.80
2019-05-05T04:36:06.743Z,1.60
2019-05-05T04:38:37.648Z,1.00
2019-05-05T04:41:07.792Z,4.00
2019-05-05T04:43:38.209Z,2.00
2019-05-05T04:46:08.508Z,1.60
2019-05-05T04:48:46.469Z,4.00
2019-05-05T04:51:18.400Z,4.00
2019-05-05T04:54:08.691Z,4.00
2019-05-05T04:56:40.765Z,4.00
2019-05-05T04:59:10.981Z,4.40
2019-05-05T05:01:41.390Z,5.60
2019-05-05T05:04:16.858Z,2.40
2019-05-05T05:06:48.728Z,1.80
2019-05-05T05:09:19.216Z,2.00
2019-05-05T05:11:49.740Z,4.00
2019-05-05T05:14:20.217Z,4.00
2019-05-05T05:16:50.993Z,2.00
2019-05-05T05:19:21.518Z,4.00
2019-05-05T05:22:01.325Z,2.40
2019-05-05T05:24:24.341Z,2.40
2019-05-05T05:26:55.530Z,2.00
2019-05-05T05:29:25.940Z,2.00
2019-05-05T05:31:56.228Z,3.20
2019-05-05T05:34:26.348Z,2.00
2019-05-05T05:36:57.043Z,4.00
2019-05-05T05:39:33.571Z,2.00
2019-05-05T05:42:04.620Z,2.20
2019-05-05T05:44:53.580Z,4.00
2019-05-05T05:47:25.851Z,1.00
2019-05-05T05:50:01.384Z,0.80
2019-05-05T05:52:34.254Z,4.20
2019-05-05T05:55:04.189Z,1.60
2019-05-05T05:57:34.646Z,1.60
2019-05-05T06:00:06.760Z,0.60
2019-05-05T06:02:36.998Z,2.20
2019-05-05T06:05:07.500Z,1.00
2019-05-05T06:07:39.408Z,1.00
2019-05-05T06:10:21.427Z,1.00
2019-05-05T06:12:41.861Z,1.00
2019-05-05T06:15:14.117Z,1.00
2019-05-05T06:17:44.185Z,2.00
2019-05-05T06:20:14.677Z,3.40
2019-05-05T06:22:45.014Z,2.20
2019-05-05T06:25:16.215Z,2.60
2019-05-05T06:27:46.601Z,1.00
2019-05-05T06:30:16.814Z,2.80
2019-05-05T06:32:46.942Z,1.00
2019-05-05T06:35:17.223Z,2.60
2019-05-05T06:37:54.921Z,2.80
2019-05-05T06:40:40.237Z,2.80
2019-05-05T06:43:18.401Z,1.00
2019-05-05T06:45:50.297Z,1.00
2019-05-05T06:48:23.645Z,1.00
2019-05-05T06:50:54.425Z,1.00
2019-05-05T06:53:24.752Z,1.00
2019-05-05T06:55:55.251Z,1.00
2019-05-05T06:58:25.520Z,3.80
2019-05-05T07:00:55.908Z,1.00
2019-05-05T07:03:26.129Z,2.20
2019-05-05T07:05:56.992Z,1.80
2019-05-05T07:08:27.347Z,4.00
2019-05-05T07:10:57.817Z,3.20
2019-05-05T07:13:28.052Z,3.40
2019-05-05T07:15:58.580Z,1.80
2019-05-05T07:18:28.820Z,3.20
2019-05-05T07:20:59.340Z,5.00
2019-05-05T07:23:30.062Z,4.40
2019-05-05T07:26:00.401Z,2.20
2019-05-05T07:28:31.112Z,3.00
2019-05-05T07:31:04.175Z,5.60
2019-05-05T07:33:34.660Z,3.40
2019-05-05T07:36:24.979Z,3.80
2019-05-05T07:38:55.465Z,4.40
2019-05-05T07:41:25.966Z,1.40
2019-05-05T07:43:56.510Z,3.00
2019-05-05T07:46:26.620Z,1.00
2019-05-05T07:48:56.873Z,3.80
2019-05-05T07:51:27.686Z,1.40
2019-05-05T07:53:57.936Z,2.60
2019-05-05T07:56:28.157Z,1.00
2019-05-05T07:58:58.780Z,3.40
2019-05-05T08:01:28.876Z,1.00
2019-05-05T08:04:00.646Z,4.00
2019-05-05T08:06:30.866Z,3.60
2019-05-05T08:09:01.087Z,3.00
2019-05-05T08:11:34.104Z,3.00
2019-05-05T08:14:04.203Z,1.00
2019-05-05T08:16:35.996Z,3.00
2019-05-05T08:19:07.748Z,2.60
2019-05-05T08:21:38.074Z,4.40
2019-05-05T08:24:14.025Z,1.00
2019-05-05T08:26:52.069Z,1.00
2019-05-05T08:29:31.132Z,3.00
2019-05-05T08:32:13.564Z,3.00
2019-05-05T08:34:57.443Z,2.60
2019-05-05T08:37:15.599Z,1.00
2019-05-05T08:39:45.960Z,1.00
2019-05-05T08:42:16.074Z,1.00
2019-05-05T08:44:46.585Z,0.80
2019-05-05T08:47:16.937Z,1.00
2019-05-05T08:49:47.729Z,2.60
2019-05-05T08:52:18.481Z,2.40
2019-05-05T08:54:48.701Z,1.00
2019-05-05T08:57:19.009Z,2.20
2019-05-05T08:59:49.160Z,2.20
2019-05-05T09:02:19.364Z,0.40
2019-05-05T09:04:50.287Z,1.00
2019-05-05T09:07:20.889Z,0.60
2019-05-05T09:09:51.073Z,0.00
2019-05-05T09:12:23.600Z,3.00
2019-05-05T09:14:53.955Z,1.80
2019-05-05T09:17:27.947Z,1.00
2019-05-05T09:19:56.464Z,1.00
2019-05-05T09:22:26.758Z,1.00
2019-05-05T09:25:13.545Z,3.00
2019-05-05T09:27:44.548Z,1.00
2019-05-05T09:30:16.288Z,3.00
2019-05-05T09:32:46.999Z,1.00
2019-05-05T09:35:17.431Z,1.00
2019-05-05T09:37:47.881Z,0.60
2019-05-05T09:40:20.966Z,1.00
2019-05-05T09:42:51.194Z,1.40
2019-05-05T09:45:21.806Z,1.00
2019-05-05T09:47:53.408Z,1.00
2019-05-05T09:50:24.116Z,0.60
2019-05-05T09:52:54.219Z,1.00
2019-05-05T09:55:24.445Z,1.00
2019-05-05T09:57:54.678Z,0.60
2019-05-05T10:00:24.909Z,1.00
2019-05-05T10:02:55.821Z,1.00
2019-05-05T10:05:26.261Z,1.00
2019-05-05T10:07:56.885Z,1.00
2019-05-05T10:10:27.089Z,0.60
2019-05-05T10:12:57.309Z,0.00
2019-05-05T10:15:27.868Z,1.00
2019-05-05T10:17:58.713Z,1.00
2019-05-05T10:20:28.912Z,1.00
2019-05-05T10:22:59.125Z,0.60
2019-05-05T10:25:37.111Z,1.00
2019-05-05T10:28:07.577Z,0.80
2019-05-05T10:30:37.461Z,0.80
2019-05-05T10:33:08.010Z,0.80
2019-05-05T10:35:37.811Z,0.40
2019-05-05T10:38:08.057Z,0.80
2019-05-05T10:40:38.256Z,1.00
2019-05-05T10:43:08.464Z,1.00
2019-05-05T10:45:38.818Z,0.00
2019-05-05T10:48:08.920Z,1.00
2019-05-05T10:50:39.142Z,1.00
2019-05-05T10:53:09.761Z,0.80
2019-05-05T10:55:39.921Z,0.20
2019-05-05T10:58:10.248Z,1.00
2019-05-05T11:00:44.340Z,3.00
2019-05-05T11:03:15.128Z,0.00
2019-05-05T11:05:45.469Z,0.60
2019-05-05T11:08:16.332Z,0.40
2019-05-05T11:10:46.481Z,1.00
2019-05-05T11:13:16.663Z,1.00
2019-05-05T11:15:46.888Z,0.80
2019-05-05T11:18:17.221Z,1.00
2019-05-05T11:20:47.333Z,0.00
2019-05-05T11:23:18.165Z,0.00
2019-05-05T11:25:48.405Z,0.00
2019-05-05T11:28:18.736Z,1.00
2019-05-05T11:30:49.440Z,0.00
2019-05-05T11:33:27.841Z,0.20
2019-05-05T11:36:00.261Z,0.80
2019-05-05T11:38:30.780Z,1.00
2019-05-05T11:41:01.112Z,1.00
2019-05-05T11:43:31.300Z,0.00
2019-05-05T11:46:01.545Z,0.40
2019-05-05T11:48:34.282Z,0.80
2019-05-05T11:51:04.491Z,1.00
2019-05-05T11:53:34.957Z,1.00
2019-05-05T11:56:05.595Z,0.40
2019-05-05T11:58:37.029Z,1.00
2019-05-05T12:01:07.259Z,3.00
2019-05-05T12:03:37.895Z,1.80
2019-05-05T12:06:08.312Z,1.00
2019-05-05T12:08:38.456Z,1.80
2019-05-05T12:11:09.397Z,2.20
2019-05-05T12:13:39.513Z,1.00
2019-05-05T12:16:13.616Z,0.00
2019-05-05T12:18:44.893Z,3.00
2019-05-05T12:21:15.405Z,1.00
2019-05-05T12:23:45.626Z,0.00
2019-05-05T12:26:35.705Z,1.00
2019-05-05T12:29:07.823Z,3.00
2019-05-05T12:31:40.002Z,0.20
2019-05-05T12:34:10.557Z,0.60
2019-05-05T12:36:40.997Z,1.80
2019-05-05T12:39:14.201Z,1.00
2019-05-05T12:41:44.617Z,1.80
2019-05-05T12:44:16.281Z,2.60
2019-05-05T12:46:48.048Z,1.40
2019-05-05T12:49:18.633Z,1.00
2019-05-05T12:51:49.367Z,3.00
2019-05-05T12:54:19.680Z,3.00
2019-05-05T12:56:50.140Z,0.20
2019-05-05T12:59:24.733Z,1.00
2019-05-05T13:01:54.761Z,1.00
2019-05-05T13:04:25.497Z,2.20
2019-05-05T13:06:55.749Z,0.00
2019-05-05T13:09:25.849Z,3.80
2019-05-05T13:11:56.396Z,1.40
2019-05-05T13:14:27.001Z,1.00
2019-05-05T13:16:57.138Z,2.20
2019-05-05T13:19:34.550Z,0.20
2019-05-05T13:22:09.252Z,1.00
2019-05-05T13:24:47.325Z,0.00
2019-05-05T13:27:25.585Z,0.00
2019-05-05T13:29:56.268Z,1.40
2019-05-05T13:32:26.408Z,1.00
2019-05-05T13:34:56.665Z,1.00
2019-05-05T13:37:26.877Z,1.00
2019-05-05T13:39:57.084Z,1.00
2019-05-05T13:42:27.914Z,0.80
2019-05-05T13:45:15.061Z,0.80
2019-05-05T13:47:45.581Z,0.80
2019-05-05T13:50:20.961Z,1.00
2019-05-05T13:52:51.273Z,0.60
2019-05-05T13:55:21.440Z,1.20
2019-05-05T13:57:51.794Z,1.20
2019-05-05T14:00:23.136Z,2.60
2019-05-05T14:02:54.496Z,1.00
2019-05-05T14:05:24.777Z,1.80
2019-05-05T14:07:55.441Z,1.40
2019-05-05T14:10:25.944Z,2.20
2019-05-05T14:12:56.980Z,1.20
2019-05-05T14:15:27.236Z,1.20
2019-05-05T14:17:57.592Z,2.20
2019-05-05T14:20:28.268Z,1.80
2019-05-05T14:22:58.610Z,1.00
2019-05-05T14:25:30.780Z,2.00
2019-05-05T14:28:03.770Z,1.60
2019-05-05T14:30:37.228Z,1.00
2019-05-05T14:33:09.223Z,1.00
2019-05-05T14:35:57.786Z,1.80
2019-05-05T14:38:34.106Z,0.60
2019-05-05T14:41:04.995Z,1.00
2019-05-05T14:43:35.304Z,0.00
2019-05-05T14:46:05.503Z,1.80
2019-05-05T14:48:37.127Z,0.00
2019-05-05T14:51:07.484Z,0.80
2019-05-05T14:53:37.732Z,1.00
2019-05-05T14:56:08.052Z,1.00
2019-05-05T14:58:38.276Z,1.00
2019-05-05T15:01:08.772Z,2.80
2019-05-05T15:03:38.932Z,4.00
2019-05-05T15:06:16.270Z,0.80
2019-05-05T15:08:54.441Z,1.60
2019-05-05T15:11:29.352Z,1.00
2019-05-05T15:13:59.770Z,1.80
2019-05-05T15:16:30.588Z,0.00
2019-05-05T15:19:00.923Z,1.00
2019-05-05T15:21:31.446Z,1.00
2019-05-05T15:24:01.577Z,0.80
2019-05-05T15:26:31.780Z,1.00
2019-05-05T15:29:02.352Z,1.00
2019-05-05T15:31:34.173Z,1.80
2019-05-05T15:34:04.599Z,2.80
2019-05-05T15:36:34.854Z,1.20
2019-05-05T15:39:07.808Z,1.00
2019-05-05T15:41:38.148Z,0.80
2019-05-05T15:44:08.663Z,1.00
2019-05-05T15:46:38.782Z,0.00
2019-05-05T15:49:09.109Z,0.60
2019-05-05T15:51:39.644Z,1.00
2019-05-05T15:54:09.747Z,1.20
2019-05-05T15:56:40.381Z,2.40
2019-05-05T15:59:10.919Z,1.60
2019-05-05T16:01:41.037Z,2.40
2019-05-05T16:04:11.580Z,1.00
2019-05-05T16:06:41.600Z,1.00
2019-05-05T16:09:13.609Z,1.00
2019-05-05T16:11:44.060Z,0.40
2019-05-05T16:14:15.632Z,1.20
2019-05-05T16:16:59.645Z,1.00
2019-05-05T16:19:31.290Z,1.00
2019-05-05T16:22:03.886Z,1.00
2019-05-05T16:24:36.459Z,1.00
2019-05-05T16:27:18.801Z,2.00
2019-05-05T16:29:39.912Z,1.00
2019-05-05T16:32:19.593Z,1.00
2019-05-05T16:34:41.872Z,1.00
2019-05-05T16:37:14.234Z,0.80
2019-05-05T16:39:44.559Z,1.00
2019-05-05T16:42:15.264Z,1.40
2019-05-05T16:44:45.833Z,1.00
2019-05-05T16:47:16.448Z,0.80
2019-05-05T16:49:46.705Z,0.00
2019-05-05T16:52:18.459Z,0.00
2019-05-05T16:55:06.914Z,2.00
2019-05-05T16:57:37.636Z,0.00
2019-05-05T17:00:09.159Z,1.00
2019-05-05T17:02:39.884Z,0.00
2019-05-05T17:05:10.444Z,0.00
2019-05-05T17:07:41.577Z,0.00
2019-05-05T17:10:13.797Z,1.00
2019-05-05T17:12:44.323Z,0.00
2019-05-05T17:15:16.169Z,0.00
2019-05-05T17:17:49.665Z,0.80
2019-05-05T17:20:25.127Z,1.00
2019-05-05T17:23:00.712Z,1.00
2019-05-05T17:25:31.152Z,1.20
2019-05-05T17:28:01.533Z,0.80
2019-05-05T17:30:33.982Z,1.20
2019-05-05T17:33:03.872Z,1.00
2019-05-05T17:35:34.525Z,1.00
2019-05-05T17:38:09.106Z,1.00
2019-05-05T17:40:47.417Z,0.00
2019-05-05T17:43:24.918Z,0.20
2019-05-05T17:46:03.876Z,0.40
2019-05-05T17:48:54.193Z,1.00
2019-05-05T17:51:25.920Z,0.80
2019-05-05T17:54:00.952Z,2.00
2019-05-05T17:56:33.481Z,1.00
2019-05-05T17:59:03.447Z,2.60
2019-05-05T18:01:34.286Z,0.40
2019-05-05T18:04:04.512Z,1.00
2019-05-05T18:06:45.589Z,1.00
2019-05-05T18:09:17.952Z,1.80
2019-05-05T18:11:59.545Z,1.00
2019-05-05T18:14:34.484Z,1.80
2019-05-05T18:17:04.772Z,1.00
2019-05-05T18:19:35.608Z,0.40
2019-05-05T18:22:05.759Z,1.00
2019-05-05T18:24:36.576Z,0.00
2019-05-05T18:27:06.885Z,0.00
2019-05-05T18:29:37.017Z,0.00
2019-05-05T18:32:07.653Z,0.00
2019-05-05T18:34:37.945Z,13.20
2019-05-05T18:37:08.242Z,25.60
2019-05-05T18:39:38.505Z,18.00
2019-05-05T18:42:10.335Z,9.60
2019-05-05T18:44:45.361Z,3.60
2019-05-05T18:47:18.378Z,1.00
2019-05-05T18:49:49.072Z,1.00
2019-05-05T18:52:20.333Z,1.20
2019-05-05T18:54:50.600Z,1.00
2019-05-05T18:57:22.132Z,1.00
2019-05-05T18:59:54.025Z,1.00
2019-05-05T19:02:28.476Z,1.00
2019-05-05T19:05:04.784Z,1.00
2019-05-05T19:07:37.311Z,0.40
2019-05-05T19:10:08.619Z,1.40
2019-05-05T19:12:38.842Z,0.60
2019-05-05T19:15:09.360Z,0.00
2019-05-05T19:17:39.790Z,1.00
2019-05-05T19:20:18.033Z,1.80
2019-05-05T19:22:50.596Z,1.00
2019-05-05T19:25:21.556Z,1.00
2019-05-05T19:27:53.661Z,1.00
2019-05-05T19:30:25.699Z,0.20
2019-05-05T19:32:56.480Z,1.00
2019-05-05T19:35:40.648Z,1.20
2019-05-05T19:37:59.477Z,1.00
2019-05-05T19:40:30.007Z,1.00
2019-05-05T19:43:00.529Z,0.00
2019-05-05T19:45:30.674Z,0.60
2019-05-05T19:48:01.219Z,1.00
2019-05-05T19:50:33.756Z,0.00
2019-05-05T19:53:05.013Z,1.00
2019-05-05T19:55:36.424Z,1.00
2019-05-05T19:58:06.708Z,1.00
2019-05-05T20:00:38.534Z,2.00
2019-05-05T20:03:08.764Z,0.00
2019-05-05T20:05:39.008Z,0.80
2019-05-05T20:08:09.124Z,1.00
2019-05-05T20:10:39.736Z,1.40
2019-05-05T20:13:09.976Z,1.80
2019-05-05T20:15:44.137Z,2.00
2019-05-05T20:18:14.250Z,1.60
2019-05-05T20:20:44.588Z,0.20
2019-05-05T20:23:14.774Z,1.60
2019-05-05T20:25:46.502Z,1.60
2019-05-05T20:28:16.847Z,1.00
2019-05-05T20:30:46.964Z,1.00
2019-05-05T20:33:37.465Z,1.00
2019-05-05T20:36:09.417Z,0.00
2019-05-05T20:38:44.355Z,1.00
2019-05-05T20:41:15.577Z,0.40
2019-05-05T20:43:46.338Z,0.00
2019-05-05T20:46:16.969Z,0.00
2019-05-05T20:48:47.077Z,0.00
2019-05-05T20:51:17.312Z,0.00
2019-05-05T20:53:49.188Z,1.00
2019-05-05T20:56:19.582Z,0.60
2019-05-05T20:58:50.410Z,1.00
2019-05-05T21:01:21.054Z,1.80
2019-05-05T21:03:53.442Z,1.00
2019-05-05T21:06:24.612Z,0.40
2019-05-05T21:08:55.764Z,2.80
2019-05-05T21:11:26.433Z,0.00
2019-05-05T21:13:57.051Z,0.60
2019-05-05T21:16:27.280Z,0.00
2019-05-05T21:18:57.825Z,0.00
2019-05-05T21:21:29.491Z,1.00
2019-05-05T21:24:04.167Z,0.00
2019-05-05T21:26:42.228Z,1.00
2019-05-05T21:29:14.074Z,0.00
2019-05-05T21:31:44.786Z,0.00
2019-05-05T21:34:15.015Z,1.00
2019-05-05T21:36:45.053Z,0.00
2019-05-05T21:39:15.553Z,1.00
2019-05-05T21:41:45.698Z,1.00
2019-05-05T21:44:15.923Z,0.20
2019-05-05T21:46:46.117Z,1.00
2019-05-05T21:49:16.429Z,0.00
2019-05-05T21:51:57.351Z,0.80
2019-05-05T21:54:44.344Z,1.00
2019-05-05T21:57:16.508Z,0.00
2019-05-05T21:59:55.577Z,0.00
2019-05-05T22:02:20.269Z,0.40
2019-05-05T22:04:50.600Z,0.00
2019-05-05T22:07:21.466Z,1.00
2019-05-05T22:09:54.389Z,0.00
2019-05-05T22:12:24.490Z,0.60
2019-05-05T22:14:55.242Z,0.00
2019-05-05T22:17:25.764Z,0.60
2019-05-05T22:20:07.166Z,1.00
2019-05-05T22:22:39.059Z,0.00
2019-05-05T22:25:09.822Z,0.00
2019-05-05T22:27:40.208Z,1.00
2019-05-05T22:30:10.985Z,0.00
2019-05-05T22:32:41.148Z,0.20
2019-05-05T22:35:11.752Z,0.00
2019-05-05T22:37:43.936Z,0.40
2019-05-05T22:40:24.356Z,0.00
2019-05-05T22:42:54.896Z,1.00
2019-05-05T22:45:25.305Z,0.40
2019-05-05T22:47:56.340Z,0.00
2019-05-05T22:50:26.593Z,0.00
2019-05-05T22:52:56.792Z,0.00
2019-05-05T22:55:27.052Z,0.80
2019-05-05T22:57:57.760Z,0.40
2019-05-05T23:00:29.628Z,1.00
2019-05-05T23:03:01.624Z,0.20
2019-05-05T23:05:34.692Z,0.00
2019-05-05T23:08:05.338Z,0.00
2019-05-05T23:10:36.654Z,1.00
2019-05-05T23:13:06.790Z,1.00
2019-05-05T23:15:38.641Z,0.00
2019-05-05T23:18:16.476Z,0.00
2019-05-05T23:21:05.920Z,0.00
2019-05-05T23:23:37.807Z,0.00
2019-05-05T23:26:09.640Z,1.00
2019-05-05T23:28:39.761Z,0.00
2019-05-05T23:31:10.980Z,0.60
2019-05-05T23:33:41.132Z,0.00
2019-05-05T23:36:11.344Z,0.00
2019-05-05T23:38:41.676Z,0.00
2019-05-05T23:41:11.761Z,0.00
2019-05-05T23:43:42.084Z,0.00
2019-05-05T23:46:14.263Z,0.00
2019-05-05T23:48:44.671Z,0.00
2019-05-05T23:51:14.830Z,0.00
2019-05-05T23:53:45.432Z,0.00
2019-05-05T23:56:15.971Z,0.00
2019-05-05T23:58:46.099Z,0.00
